createdAt,value
2018-03-17T00:01:42.252Z,1.36
2018-03-17T00:04:08.494Z,1.28
2018-03-17T00:06:35.161Z,1.27
2018-03-17T00:09:01.400Z,1.23
2018-03-17T00:11:27.828Z,1.29
2018-03-17T00:13:54.063Z,1.20
2018-03-17T00:16:20.495Z,1.18
2018-03-17T00:18:46.756Z,1.21
2018-03-17T00:21:12.996Z,1.19
2018-03-17T00:23:39.256Z,1.16
2018-03-17T00:26:05.505Z,1.19
2018-03-17T00:28:32.037Z,1.22
2018-03-17T00:30:58.312Z,1.28
2018-03-17T00:33:24.692Z,1.24
2018-03-17T00:35:50.925Z,1.15
2018-03-17T00:38:17.212Z,1.17
2018-03-17T00:40:43.605Z,1.18
2018-03-17T00:43:10.234Z,1.19
2018-03-17T00:45:36.632Z,1.14
2018-03-17T00:48:02.900Z,1.08
2018-03-17T00:50:30.105Z,1.10
2018-03-17T00:52:56.566Z,1.10
2018-03-17T00:55:22.864Z,1.06
2018-03-17T00:57:49.328Z,1.01
2018-03-17T01:00:15.589Z,0.86
2018-03-17T01:02:42.102Z,0.79
2018-03-17T01:05:08.458Z,0.70
2018-03-17T01:07:34.832Z,0.62
2018-03-17T01:10:01.105Z,0.55
2018-03-17T01:12:27.340Z,0.47
2018-03-17T01:14:53.930Z,0.44
2018-03-17T01:17:20.412Z,0.50
2018-03-17T01:19:46.855Z,0.52
2018-03-17T01:22:13.447Z,0.52
2018-03-17T01:24:39.888Z,0.49
2018-03-17T01:27:06.129Z,0.44
2018-03-17T01:29:32.668Z,0.48
2018-03-17T01:31:58.932Z,0.47
2018-03-17T01:34:26.545Z,0.39
2018-03-17T01:36:53.142Z,0.41
2018-03-17T01:39:19.656Z,0.34
2018-03-17T01:41:46.083Z,0.38
2018-03-17T01:44:12.611Z,0.31
2018-03-17T01:46:38.986Z,0.35
2018-03-17T01:49:05.385Z,0.32
2018-03-17T01:51:31.819Z,0.25
2018-03-17T01:54:10.075Z,0.28
2018-03-17T01:56:36.934Z,0.30
2018-03-17T01:59:03.327Z,0.29
2018-03-17T02:01:29.600Z,0.24
2018-03-17T02:03:56.059Z,0.26
2018-03-17T02:06:22.328Z,0.27
2018-03-17T02:08:48.785Z,0.24
2018-03-17T02:11:15.052Z,0.25
2018-03-17T02:13:41.284Z,0.17
2018-03-17T02:16:07.916Z,0.13
2018-03-17T02:18:34.160Z,0.15
2018-03-17T02:21:00.584Z,0.12
2018-03-17T02:23:26.965Z,0.11
2018-03-17T02:25:53.224Z,0.09
2018-03-17T02:28:19.549Z,0.11
2018-03-17T02:30:45.792Z,0.05
2018-03-17T02:33:12.212Z,0.03
2018-03-17T02:35:38.476Z,0.05
2018-03-17T02:38:04.749Z,0.00
2018-03-17T02:40:31.004Z,0.01
2018-03-17T02:42:57.272Z,-0.05
2018-03-17T02:45:23.693Z,-0.03
2018-03-17T02:47:52.167Z,-0.08
2018-03-17T02:50:18.516Z,-0.09
2018-03-17T02:52:44.995Z,-0.06
2018-03-17T02:55:11.397Z,-0.08
2018-03-17T02:57:37.650Z,-0.17
2018-03-17T03:00:03.961Z,-0.15
2018-03-17T03:02:30.207Z,-0.16
2018-03-17T03:04:56.815Z,-0.16
2018-03-17T03:07:23.999Z,-0.23
2018-03-17T03:09:50.552Z,-0.22
2018-03-17T03:12:16.937Z,-0.26
2018-03-17T03:14:43.284Z,-0.23
2018-03-17T03:17:09.804Z,-0.22
2018-03-17T03:19:36.100Z,-0.17
2018-03-17T03:22:02.346Z,-0.28
2018-03-17T03:24:28.619Z,-0.40
2018-03-17T03:26:55.044Z,-0.39
2018-03-17T03:29:21.289Z,-0.36
2018-03-17T03:31:47.644Z,-0.43
2018-03-17T03:34:13.877Z,-0.42
2018-03-17T03:36:40.265Z,-0.45
2018-03-17T03:39:06.749Z,-0.50
2018-03-17T03:41:33.009Z,-0.50
2018-03-17T03:43:59.252Z,-0.44
2018-03-17T03:46:25.480Z,-0.37
2018-03-17T03:48:52.101Z,-0.41
2018-03-17T03:51:18.460Z,-0.50
2018-03-17T03:53:45.009Z,-0.54
2018-03-17T03:56:11.493Z,-0.57
2018-03-17T03:58:37.761Z,-0.54
2018-03-17T04:01:04.328Z,-0.56
2018-03-17T04:03:30.591Z,-0.60
2018-03-17T04:05:56.824Z,-0.63
2018-03-17T04:08:23.068Z,-0.53
2018-03-17T04:10:49.292Z,-0.58
2018-03-17T04:13:15.699Z,-0.62
2018-03-17T04:15:41.964Z,-0.65
2018-03-17T04:18:08.208Z,-0.59
2018-03-17T04:20:34.535Z,-0.62
2018-03-17T04:23:00.826Z,-0.60
2018-03-17T04:25:27.196Z,-0.59
2018-03-17T04:27:53.432Z,-0.65
2018-03-17T04:30:20.020Z,-0.74
2018-03-17T04:32:46.367Z,-0.80
2018-03-17T04:35:12.713Z,-0.89
2018-03-17T04:37:38.992Z,-0.94
2018-03-17T04:40:05.392Z,-1.00
2018-03-17T04:42:31.659Z,-1.05
2018-03-17T04:44:57.924Z,-1.04
2018-03-17T04:47:24.320Z,-1.03
2018-03-17T04:49:50.580Z,-1.10
2018-03-17T04:52:17.182Z,-1.16
2018-03-17T04:54:43.440Z,-1.19
2018-03-17T04:57:09.953Z,-1.24
2018-03-17T04:59:36.192Z,-1.25
2018-03-17T05:02:02.624Z,-1.28
2018-03-17T05:04:28.977Z,-1.29
2018-03-17T05:06:55.219Z,-1.28
2018-03-17T05:09:21.599Z,-1.30
2018-03-17T05:11:47.844Z,-1.35
2018-03-17T05:14:14.561Z,-1.27
2018-03-17T05:16:40.796Z,-1.26
2018-03-17T05:19:07.333Z,-1.31
2018-03-17T05:21:33.631Z,-1.29
2018-03-17T05:23:59.945Z,-1.29
2018-03-17T05:26:26.224Z,-1.26
2018-03-17T05:28:52.620Z,-1.26
2018-03-17T05:31:18.992Z,-1.34
2018-03-17T05:33:45.268Z,-1.42
2018-03-17T05:36:11.992Z,-1.37
2018-03-17T05:38:38.410Z,-1.48
2018-03-17T05:41:04.717Z,-1.52
2018-03-17T05:43:31.013Z,-1.46
2018-03-17T05:45:57.332Z,-1.46
2018-03-17T05:48:23.724Z,-1.48
2018-03-17T05:50:50.176Z,-1.40
2018-03-17T05:53:16.476Z,-1.41
2018-03-17T05:55:42.711Z,-1.43
2018-03-17T05:58:09.068Z,-1.46
2018-03-17T06:00:35.324Z,-1.51
2018-03-17T06:03:01.608Z,-1.53
2018-03-17T06:05:27.873Z,-1.56
2018-03-17T06:07:54.105Z,-1.56
2018-03-17T06:10:20.333Z,-1.50
2018-03-17T06:12:46.650Z,-1.46
2018-03-17T06:15:12.881Z,-1.53
2018-03-17T06:17:39.151Z,-1.54
2018-03-17T06:20:05.532Z,-1.60
2018-03-17T06:22:31.897Z,-1.61
2018-03-17T06:24:58.337Z,-1.70
2018-03-17T06:27:24.576Z,-1.69
2018-03-17T06:29:51.012Z,-1.70
2018-03-17T06:32:17.235Z,-1.69
2018-03-17T06:34:43.668Z,-1.71
2018-03-17T06:37:09.954Z,-1.63
2018-03-17T06:39:36.200Z,-1.65
2018-03-17T06:42:02.488Z,-1.70
2018-03-17T06:44:28.740Z,-1.66
2018-03-17T06:46:55.050Z,-1.59
2018-03-17T06:49:21.327Z,-1.50
2018-03-17T06:51:47.660Z,-1.48
2018-03-17T06:54:13.953Z,-1.50
2018-03-17T06:56:40.273Z,-1.49
2018-03-17T06:59:06.523Z,-1.50
2018-03-17T07:01:33.338Z,-1.52
2018-03-17T07:03:59.795Z,-1.59
2018-03-17T07:06:26.090Z,-1.55
2018-03-17T07:08:52.500Z,-1.52
2018-03-17T07:11:18.860Z,-1.48
2018-03-17T07:13:45.134Z,-1.46
2018-03-17T07:16:11.462Z,-1.52
2018-03-17T07:18:37.782Z,-1.48
2018-03-17T07:21:04.016Z,-1.50
2018-03-17T07:23:30.244Z,-1.41
2018-03-17T07:25:56.492Z,-1.38
2018-03-17T07:28:22.730Z,-1.27
2018-03-17T07:30:49.032Z,-1.31
2018-03-17T07:33:15.307Z,-1.28
2018-03-17T07:35:41.536Z,-1.29
2018-03-17T07:38:07.793Z,-1.30
2018-03-17T07:40:34.032Z,-1.25
2018-03-17T07:43:00.292Z,-1.27
2018-03-17T07:45:26.553Z,-1.21
2018-03-17T07:47:52.797Z,-1.17
2018-03-17T07:50:19.040Z,-1.28
2018-03-17T07:52:45.259Z,-1.28
2018-03-17T07:55:11.529Z,-1.21
2018-03-17T07:57:37.764Z,-1.11
2018-03-17T08:00:04.044Z,-0.99
2018-03-17T08:02:30.301Z,-0.95
2018-03-17T08:04:56.533Z,-1.06
2018-03-17T08:07:22.793Z,-1.11
2018-03-17T08:09:49.025Z,-1.12
2018-03-17T08:12:15.248Z,-1.10
2018-03-17T08:14:41.500Z,-0.97
2018-03-17T08:17:07.733Z,-0.96
2018-03-17T08:19:33.996Z,-0.99
2018-03-17T08:22:00.273Z,-1.15
2018-03-17T08:24:26.504Z,-0.99
2018-03-17T08:26:52.755Z,-0.93
2018-03-17T08:29:19.004Z,-1.06
2018-03-17T08:31:45.273Z,-1.08
2018-03-17T08:34:11.532Z,-0.92
2018-03-17T08:36:37.792Z,-0.82
2018-03-17T08:39:04.084Z,-0.87
2018-03-17T08:41:30.341Z,-0.83
2018-03-17T08:43:56.612Z,-0.79
2018-03-17T08:46:22.864Z,-0.74
2018-03-17T08:48:49.585Z,-0.91
2018-03-17T08:51:16.168Z,-1.02
2018-03-17T08:53:42.412Z,-0.86
2018-03-17T08:56:08.681Z,-0.76
2018-03-17T08:58:34.928Z,-0.73
2018-03-17T09:01:01.169Z,-0.64
2018-03-17T09:03:27.484Z,-0.81
2018-03-17T09:05:53.747Z,-0.88
2018-03-17T09:08:20.012Z,-0.81
2018-03-17T09:10:46.325Z,-0.77
2018-03-17T09:13:12.523Z,-0.82
2018-03-17T09:15:38.789Z,-0.88
2018-03-17T09:18:05.054Z,-0.88
2018-03-17T09:20:31.293Z,-0.96
2018-03-17T09:22:57.559Z,-1.01
2018-03-17T09:25:23.816Z,-1.00
2018-03-17T09:27:50.092Z,-0.96
2018-03-17T09:30:16.380Z,-1.04
2018-03-17T09:32:42.657Z,-0.96
2018-03-17T09:35:08.915Z,-0.90
2018-03-17T09:37:35.432Z,-1.04
2018-03-17T09:40:02.059Z,-0.92
2018-03-17T09:42:28.456Z,-0.91
2018-03-17T09:44:54.988Z,-0.76
2018-03-17T09:47:21.256Z,-0.67
2018-03-17T09:49:47.523Z,-0.67
2018-03-17T09:52:14.217Z,-0.68
2018-03-17T09:54:40.692Z,-0.69
2018-03-17T09:57:07.022Z,-0.69
2018-03-17T09:59:33.308Z,-0.69
2018-03-17T10:01:59.692Z,-0.67
2018-03-17T10:04:25.949Z,-0.62
2018-03-17T10:06:52.440Z,-0.51
2018-03-17T10:09:18.709Z,-0.55
2018-03-17T10:11:44.956Z,-0.45
2018-03-17T10:14:11.591Z,-0.45
2018-03-17T10:16:37.858Z,-0.52
2018-03-17T10:19:04.125Z,-0.60
2018-03-17T10:21:30.454Z,-0.54
2018-03-17T10:23:56.755Z,-0.68
2018-03-17T10:26:23.219Z,-0.69
2018-03-17T10:28:49.480Z,-0.61
2018-03-17T10:31:15.919Z,-0.58
2018-03-17T10:33:42.159Z,-0.46
2018-03-17T10:36:08.740Z,-0.45
2018-03-17T10:38:35.152Z,-0.70
2018-03-17T10:41:01.388Z,-0.67
2018-03-17T10:43:27.979Z,-0.78
2018-03-17T10:45:54.242Z,-0.83
2018-03-17T10:48:20.657Z,-0.74
2018-03-17T10:50:46.927Z,-0.69
2018-03-17T10:53:13.167Z,-0.51
2018-03-17T10:55:39.453Z,-0.47
2018-03-17T10:58:06.123Z,-0.42
2018-03-17T11:00:32.432Z,-0.44
2018-03-17T11:02:58.702Z,-0.40
2018-03-17T11:05:24.980Z,-0.36
2018-03-17T11:07:51.676Z,-0.34
2018-03-17T11:10:17.938Z,-0.30
2018-03-17T11:12:45.353Z,-0.14
2018-03-17T11:15:11.848Z,-0.07
2018-03-17T11:17:38.136Z,-0.19
2018-03-17T11:20:04.707Z,-0.29
2018-03-17T11:22:31.400Z,-0.24
2018-03-17T11:24:58.041Z,-0.18
2018-03-17T11:27:24.606Z,-0.22
2018-03-17T11:29:50.884Z,-0.08
2018-03-17T11:32:17.336Z,-0.15
2018-03-17T11:34:43.796Z,-0.10
2018-03-17T11:37:10.061Z,0.04
2018-03-17T11:39:36.641Z,0.08
2018-03-17T11:42:02.908Z,0.21
2018-03-17T11:44:29.169Z,0.36
2018-03-17T11:46:55.444Z,0.38
2018-03-17T11:49:22.012Z,0.39
2018-03-17T11:51:48.244Z,0.49
2018-03-17T11:54:14.600Z,0.55
2018-03-17T11:56:40.985Z,0.51
2018-03-17T11:59:07.304Z,0.54
2018-03-17T12:01:33.836Z,0.49
2018-03-17T12:04:00.093Z,0.45
2018-03-17T12:06:26.357Z,0.26
2018-03-17T12:08:52.620Z,0.30
2018-03-17T12:11:18.860Z,0.17
2018-03-17T12:13:45.128Z,0.22
2018-03-17T12:16:11.368Z,0.09
2018-03-17T12:18:37.604Z,-0.05
2018-03-17T12:21:03.901Z,-0.14
2018-03-17T12:23:30.145Z,-0.20
2018-03-17T12:25:56.417Z,-0.13
2018-03-17T12:28:22.715Z,-0.26
2018-03-17T12:30:48.933Z,-0.19
2018-03-17T12:33:15.192Z,-0.16
2018-03-17T12:35:41.432Z,-0.17
2018-03-17T12:38:07.712Z,-0.09
2018-03-17T12:40:33.944Z,-0.13
2018-03-17T12:43:00.176Z,-0.05
2018-03-17T12:45:26.437Z,-0.08
2018-03-17T12:47:53.821Z,-0.02
2018-03-17T12:50:23.005Z,0.05
2018-03-17T12:52:49.270Z,-0.02
2018-03-17T12:55:15.512Z,-0.15
2018-03-17T12:57:41.776Z,-0.29
2018-03-17T13:00:08.043Z,-0.31
2018-03-17T13:02:34.307Z,-0.51
2018-03-17T13:05:00.587Z,-0.63
2018-03-17T13:07:26.832Z,-0.70
2018-03-17T13:09:53.072Z,-0.88
2018-03-17T13:12:19.344Z,-0.81
2018-03-17T13:14:45.588Z,-1.03
2018-03-17T13:17:11.832Z,-1.02
2018-03-17T13:19:38.105Z,-0.95
2018-03-17T13:22:04.347Z,-0.93
2018-03-17T13:24:30.631Z,-0.89
2018-03-17T13:27:08.953Z,-0.97
2018-03-17T13:29:35.223Z,-0.94
2018-03-17T13:32:01.460Z,-0.88
2018-03-17T13:34:27.732Z,-0.82
2018-03-17T13:37:06.132Z,-0.77
2018-03-17T13:39:32.374Z,-0.86
2018-03-17T13:41:58.644Z,-0.81
2018-03-17T13:44:24.921Z,-0.88
2018-03-17T13:46:51.201Z,-1.02
2018-03-17T13:49:17.452Z,-1.07
2018-03-17T13:51:43.745Z,-1.15
2018-03-17T13:54:09.999Z,-1.16
2018-03-17T13:56:36.256Z,-1.16
2018-03-17T13:59:02.536Z,-1.06
2018-03-17T14:01:28.786Z,-1.17
2018-03-17T14:03:55.061Z,-1.20
2018-03-17T14:06:21.365Z,-1.34
2018-03-17T14:08:47.664Z,-1.41
2018-03-17T14:11:13.920Z,-1.50
2018-03-17T14:13:40.185Z,-1.43
2018-03-17T14:16:06.432Z,-1.40
2018-03-17T14:18:32.677Z,-1.39
2018-03-17T14:20:58.928Z,-1.29
2018-03-17T14:23:25.157Z,-1.19
2018-03-17T14:25:51.400Z,-1.30
2018-03-17T14:28:17.647Z,-1.36
2018-03-17T14:30:43.914Z,-1.40
2018-03-17T14:33:10.140Z,-1.31
2018-03-17T14:35:36.372Z,-1.30
2018-03-17T14:38:02.650Z,-1.23
2018-03-17T14:40:28.887Z,-1.20
2018-03-17T14:42:55.143Z,-1.27
2018-03-17T14:45:21.368Z,-1.21
2018-03-17T14:47:49.208Z,-1.12
2018-03-17T14:50:16.171Z,-1.12
2018-03-17T14:52:42.438Z,-1.18
2018-03-17T14:55:08.763Z,-1.24
2018-03-17T14:57:35.004Z,-1.37
2018-03-17T15:00:01.289Z,-1.38
2018-03-17T15:02:27.541Z,-1.41
2018-03-17T15:04:53.813Z,-1.37
2018-03-17T15:07:20.060Z,-1.46
2018-03-17T15:09:46.357Z,-1.61
2018-03-17T15:12:12.599Z,-1.63
2018-03-17T15:14:39.627Z,-1.74
2018-03-17T15:17:05.860Z,-1.78
2018-03-17T15:19:32.120Z,-1.78
2018-03-17T15:21:58.377Z,-1.79
2018-03-17T15:24:24.633Z,-1.74
2018-03-17T15:26:50.939Z,-1.75
2018-03-17T15:29:17.173Z,-1.79
2018-03-17T15:31:43.424Z,-1.71
2018-03-17T15:34:09.655Z,-1.71
2018-03-17T15:36:35.957Z,-1.82
2018-03-17T15:39:02.287Z,-1.80
2018-03-17T15:41:28.580Z,-1.73
2018-03-17T15:43:54.815Z,-1.78
2018-03-17T15:46:21.046Z,-1.76
2018-03-17T15:48:47.343Z,-1.72
2018-03-17T15:51:13.576Z,-1.83
2018-03-17T15:53:39.838Z,-1.92
2018-03-17T15:56:06.112Z,-1.91
2018-03-17T15:58:32.392Z,-1.98
2018-03-17T16:00:58.700Z,-1.94
2018-03-17T16:03:24.933Z,-1.93
2018-03-17T16:05:51.228Z,-1.96
2018-03-17T16:08:18.171Z,-1.95
2018-03-17T16:10:44.447Z,-2.01
2018-03-17T16:13:10.684Z,-2.01
2018-03-17T16:15:36.936Z,-2.00
2018-03-17T16:18:03.198Z,-2.09
2018-03-17T16:20:29.494Z,-2.17
2018-03-17T16:22:55.841Z,-2.16
2018-03-17T16:25:22.076Z,-2.11
2018-03-17T16:27:48.409Z,-2.13
2018-03-17T16:30:14.632Z,-2.22
2018-03-17T16:32:40.884Z,-2.21
2018-03-17T16:35:07.117Z,-2.29
2018-03-17T16:37:33.532Z,-2.21
2018-03-17T16:39:59.804Z,-2.18
2018-03-17T16:42:26.061Z,-2.21
2018-03-17T16:44:52.550Z,-2.19
2018-03-17T16:47:21.740Z,-2.22
2018-03-17T16:49:48.042Z,-2.27
2018-03-17T16:52:14.276Z,-2.33
2018-03-17T16:54:40.567Z,-2.25
2018-03-17T16:57:06.783Z,-2.27
2018-03-17T16:59:33.065Z,-2.35
2018-03-17T17:01:59.663Z,-2.35
2018-03-17T17:04:25.951Z,-2.37
2018-03-17T17:06:52.192Z,-2.32
2018-03-17T17:09:18.429Z,-2.29
2018-03-17T17:11:44.716Z,-2.30
2018-03-17T17:14:10.956Z,-2.31
2018-03-17T17:16:37.208Z,-2.35
2018-03-17T17:19:03.476Z,-2.39
2018-03-17T17:21:29.737Z,-2.36
2018-03-17T17:23:56.024Z,-2.23
2018-03-17T17:26:22.248Z,-2.25
2018-03-17T17:28:48.503Z,-2.22
2018-03-17T17:31:14.732Z,-2.29
2018-03-17T17:33:40.980Z,-2.35
2018-03-17T17:36:07.228Z,-2.39
2018-03-17T17:38:33.464Z,-2.43
2018-03-17T17:40:59.692Z,-2.38
2018-03-17T17:43:25.953Z,-2.37
2018-03-17T17:45:52.306Z,-2.37
2018-03-17T17:48:18.496Z,-2.41
2018-03-17T17:50:44.741Z,-2.41
2018-03-17T17:53:10.988Z,-2.42
2018-03-17T17:55:37.256Z,-2.35
2018-03-17T17:58:03.549Z,-2.40
2018-03-17T18:00:29.877Z,-2.32
2018-03-17T18:02:56.470Z,-2.22
2018-03-17T18:05:22.773Z,-2.35
2018-03-17T18:07:49.021Z,-2.40
2018-03-17T18:10:15.267Z,-2.41
2018-03-17T18:12:41.507Z,-2.39
2018-03-17T18:15:07.835Z,-2.34
2018-03-17T18:17:34.100Z,-2.31
2018-03-17T18:20:00.492Z,-2.38
2018-03-17T18:22:26.738Z,-2.37
2018-03-17T18:24:52.960Z,-2.41
2018-03-17T18:27:19.322Z,-2.51
2018-03-17T18:29:45.584Z,-2.58
2018-03-17T18:32:11.855Z,-2.54
2018-03-17T18:34:38.432Z,-2.49
2018-03-17T18:37:04.760Z,-2.47
2018-03-17T18:39:31.000Z,-2.49
2018-03-17T18:41:57.220Z,-2.57
2018-03-17T18:44:23.470Z,-2.53
2018-03-17T18:46:49.697Z,-2.58
2018-03-17T18:49:15.959Z,-2.61
2018-03-17T18:51:42.192Z,-2.61
2018-03-17T18:54:08.497Z,-2.66
2018-03-17T18:56:34.746Z,-2.58
2018-03-17T18:59:00.992Z,-2.57
2018-03-17T19:01:27.245Z,-2.56
2018-03-17T19:03:53.511Z,-2.52
2018-03-17T19:06:19.796Z,-2.53
2018-03-17T19:08:46.028Z,-2.52
2018-03-17T19:11:12.267Z,-2.55
2018-03-17T19:13:38.504Z,-2.48
2018-03-17T19:16:04.756Z,-2.46
2018-03-17T19:18:31.012Z,-2.45
2018-03-17T19:20:57.237Z,-2.41
2018-03-17T19:23:23.544Z,-2.40
2018-03-17T19:25:49.769Z,-2.40
2018-03-17T19:28:16.027Z,-2.49
2018-03-17T19:30:42.253Z,-2.51
2018-03-17T19:33:08.503Z,-2.55
2018-03-17T19:35:34.734Z,-2.56
2018-03-17T19:38:00.988Z,-2.57
2018-03-17T19:40:27.255Z,-2.54
2018-03-17T19:42:53.544Z,-2.56
2018-03-17T19:45:19.795Z,-2.54
2018-03-17T19:47:46.048Z,-2.48
2018-03-17T19:50:12.323Z,-2.50
2018-03-17T19:52:38.716Z,-2.50
2018-03-17T19:55:05.557Z,-2.53
2018-03-17T19:57:31.787Z,-2.46
2018-03-17T19:59:58.031Z,-2.47
2018-03-17T20:02:25.839Z,-2.46
2018-03-17T20:04:52.172Z,-2.44
2018-03-17T20:07:18.401Z,-2.55
2018-03-17T20:09:44.669Z,-2.54
2018-03-17T20:12:11.104Z,-2.58
2018-03-17T20:14:37.369Z,-2.56
2018-03-17T20:17:03.647Z,-2.49
2018-03-17T20:19:29.967Z,-2.52
2018-03-17T20:21:56.251Z,-2.53
2018-03-17T20:24:22.472Z,-2.49
2018-03-17T20:26:48.740Z,-2.43
2018-03-17T20:29:14.993Z,-2.41
2018-03-17T20:31:41.244Z,-2.33
2018-03-17T20:34:07.599Z,-2.36
2018-03-17T20:36:33.896Z,-2.37
2018-03-17T20:39:00.186Z,-2.33
2018-03-17T20:41:26.420Z,-2.37
2018-03-17T20:43:52.756Z,-2.43
2018-03-17T20:46:18.997Z,-2.42
2018-03-17T20:48:46.594Z,-2.40
2018-03-17T20:51:12.848Z,-2.35
2018-03-17T20:53:39.076Z,-2.32
2018-03-17T20:56:05.420Z,-2.27
2018-03-17T20:58:31.732Z,-2.29
2018-03-17T21:00:58.028Z,-2.25
2018-03-17T21:03:24.268Z,-2.21
2018-03-17T21:05:50.543Z,-2.24
2018-03-17T21:08:16.773Z,-2.26
2018-03-17T21:10:43.038Z,-2.23
2018-03-17T21:13:09.658Z,-2.33
2018-03-17T21:15:35.908Z,-2.39
2018-03-17T21:18:02.298Z,-2.38
2018-03-17T21:20:28.576Z,-2.41
2018-03-17T21:22:54.905Z,-2.36
2018-03-17T21:25:21.185Z,-2.34
2018-03-17T21:27:47.599Z,-2.35
2018-03-17T21:30:13.870Z,-2.36
2018-03-17T21:32:40.174Z,-2.34
2018-03-17T21:35:06.611Z,-2.36
2018-03-17T21:37:32.848Z,-2.44
2018-03-17T21:39:59.207Z,-2.49
2018-03-17T21:42:25.460Z,-2.54
2018-03-17T21:44:51.836Z,-2.42
2018-03-17T21:47:18.152Z,-2.38
2018-03-17T21:49:44.432Z,-2.35
2018-03-17T21:52:10.660Z,-2.39
2018-03-17T21:54:36.908Z,-2.38
2018-03-17T21:57:03.156Z,-2.41
2018-03-17T21:59:29.388Z,-2.42
2018-03-17T22:01:55.688Z,-2.47
2018-03-17T22:04:21.919Z,-2.47
2018-03-17T22:06:48.184Z,-2.49
2018-03-17T22:09:14.445Z,-2.52
2018-03-17T22:11:40.712Z,-2.57
2018-03-17T22:14:06.972Z,-2.53
2018-03-17T22:16:33.223Z,-2.52
2018-03-17T22:18:59.514Z,-2.51
2018-03-17T22:21:25.847Z,-2.52
2018-03-17T22:23:52.112Z,-2.49
2018-03-17T22:26:18.372Z,-2.50
2018-03-17T22:28:44.648Z,-2.49
2018-03-17T22:31:11.153Z,-2.44
2018-03-17T22:33:37.408Z,-2.55
2018-03-17T22:36:03.849Z,-2.58
2018-03-17T22:38:30.124Z,-2.71
2018-03-17T22:40:56.396Z,-2.58
2018-03-17T22:43:22.963Z,-2.56
2018-03-17T22:45:49.202Z,-2.55
2018-03-17T22:48:15.581Z,-2.58
2018-03-17T22:50:41.900Z,-2.54
2018-03-17T22:53:08.135Z,-2.59
2018-03-17T22:55:34.764Z,-2.58
2018-03-17T22:58:00.999Z,-2.50
2018-03-17T23:00:27.344Z,-2.54
2018-03-17T23:02:53.706Z,-2.61
2018-03-17T23:05:19.939Z,-2.61
2018-03-17T23:07:46.613Z,-2.67
2018-03-17T23:10:12.851Z,-2.66
2018-03-17T23:12:39.187Z,-2.66
2018-03-17T23:15:05.595Z,-2.66
2018-03-17T23:17:31.868Z,-2.65
2018-03-17T23:19:58.512Z,-2.63
2018-03-17T23:22:24.817Z,-2.61
2018-03-17T23:24:51.118Z,-2.64
2018-03-17T23:27:17.569Z,-2.64
2018-03-17T23:29:43.860Z,-2.63
2018-03-17T23:32:10.524Z,-2.62
2018-03-17T23:34:36.783Z,-2.65
2018-03-17T23:37:03.128Z,-2.66
2018-03-17T23:39:29.560Z,-2.57
2018-03-17T23:41:55.819Z,-2.56
2018-03-17T23:44:22.463Z,-2.60
2018-03-17T23:46:48.792Z,-2.56
2018-03-17T23:49:15.122Z,-2.62
2018-03-17T23:51:41.580Z,-2.59
2018-03-17T23:54:07.840Z,-2.57
2018-03-17T23:56:34.519Z,-2.54
2018-03-17T23:59:00.802Z,-2.58
